sensor_id;sensor_type;location;lat;lon;timestamp;temperature;humidity
17619;DHT22;8928;51.678;6.074;2023-01-24T00:01:49;2.90;99.90
17619;DHT22;8928;51.678;6.074;2023-01-24T00:04:36;2.90;99.90
17619;DHT22;8928;51.678;6.074;2023-01-24T00:07:23;3.00;99.90
17619;DHT22;8928;51.678;6.074;2023-01-24T00:10:11;2.90;99.90
17619;DHT22;8928;51.678;6.074;2023-01-24T00:12:58;2.90;99.90
17619;DHT22;8928;51.678;6.074;2023-01-24T00:15:45;2.90;99.90
17619;DHT22;8928;51.678;6.074;2023-01-24T00:18:33;2.90;99.90
17619;DHT22;8928;51.678;6.074;2023-01-24T00:21:22;2.90;99.90
17619;DHT22;8928;51.678;6.074;2023-01-24T00:24:10;2.90;99.90
17619;DHT22;8928;51.678;6.074;2023-01-24T00:26:57;3.00;99.90
17619;DHT22;8928;51.678;6.074;2023-01-24T00:29:44;2.90;99.90
17619;DHT22;8928;51.678;6.074;2023-01-24T00:32:31;2.90;99.90
17619;DHT22;8928;51.678;6.074;2023-01-24T00:35:19;2.90;99.90
17619;DHT22;8928;51.678;6.074;2023-01-24T00:38:06;2.90;99.90
17619;DHT22;8928;51.678;6.074;2023-01-24T00:40:53;2.90;99.90
17619;DHT22;8928;51.678;6.074;2023-01-24T00:43:40;2.90;99.90
17619;DHT22;8928;51.678;6.074;2023-01-24T00:46:27;2.90;99.90
17619;DHT22;8928;51.678;6.074;2023-01-24T00:49:14;2.90;99.90
17619;DHT22;8928;51.678;6.074;2023-01-24T00:52:03;2.90;99.90
17619;DHT22;8928;51.678;6.074;2023-01-24T00:54:50;2.90;99.90
17619;DHT22;8928;51.678;6.074;2023-01-24T00:57:37;2.90;99.90
17619;DHT22;8928;51.678;6.074;2023-01-24T01:00:24;2.90;99.90
17619;DHT22;8928;51.678;6.074;2023-01-24T01:03:13;2.90;99.90
17619;DHT22;8928;51.678;6.074;2023-01-24T01:06:01;2.90;99.90
17619;DHT22;8928;51.678;6.074;2023-01-24T01:08:50;2.90;99.90
17619;DHT22;8928;51.678;6.074;2023-01-24T01:11:37;2.80;99.90
17619;DHT22;8928;51.678;6.074;2023-01-24T01:14:27;2.80;99.90
17619;DHT22;8928;51.678;6.074;2023-01-24T01:17:14;2.80;99.90
17619;DHT22;8928;51.678;6.074;2023-01-24T01:20:01;2.80;99.90
17619;DHT22;8928;51.678;6.074;2023-01-24T01:22:48;2.80;99.90
17619;DHT22;8928;51.678;6.074;2023-01-24T01:25:39;2.80;99.90
17619;DHT22;8928;51.678;6.074;2023-01-24T01:28:26;2.80;99.90
17619;DHT22;8928;51.678;6.074;2023-01-24T01:31:13;2.80;99.90
17619;DHT22;8928;51.678;6.074;2023-01-24T01:34:01;2.80;99.90
17619;DHT22;8928;51.678;6.074;2023-01-24T01:36:48;2.80;99.90
17619;DHT22;8928;51.678;6.074;2023-01-24T01:39:35;2.80;99.90
17619;DHT22;8928;51.678;6.074;2023-01-24T01:42:23;2.80;99.90
17619;DHT22;8928;51.678;6.074;2023-01-24T01:45:29;2.70;99.90
17619;DHT22;8928;51.678;6.074;2023-01-24T01:48:24;2.80;99.90
17619;DHT22;8928;51.678;6.074;2023-01-24T01:51:16;2.80;99.90
17619;DHT22;8928;51.678;6.074;2023-01-24T01:54:07;2.70;99.90
17619;DHT22;8928;51.678;6.074;2023-01-24T01:56:57;2.70;99.90
17619;DHT22;8928;51.678;6.074;2023-01-24T01:59:49;2.70;99.90
17619;DHT22;8928;51.678;6.074;2023-01-24T02:02:39;2.70;99.90
17619;DHT22;8928;51.678;6.074;2023-01-24T02:05:27;2.70;99.90
17619;DHT22;8928;51.678;6.074;2023-01-24T02:08:19;2.70;99.90
17619;DHT22;8928;51.678;6.074;2023-01-24T02:11:07;2.70;99.90
17619;DHT22;8928;51.678;6.074;2023-01-24T02:14:16;2.70;99.90
17619;DHT22;8928;51.678;6.074;2023-01-24T02:17:23;2.60;99.90
17619;DHT22;8928;51.678;6.074;2023-01-24T02:20:20;2.60;99.90
17619;DHT22;8928;51.678;6.074;2023-01-24T02:23:17;2.60;99.90
17619;DHT22;8928;51.678;6.074;2023-01-24T02:26:09;2.60;99.90
17619;DHT22;8928;51.678;6.074;2023-01-24T02:28:58;2.60;99.90
17619;DHT22;8928;51.678;6.074;2023-01-24T02:31:55;2.60;99.90
17619;DHT22;8928;51.678;6.074;2023-01-24T02:34:42;2.60;99.90
17619;DHT22;8928;51.678;6.074;2023-01-24T02:37:29;2.50;99.90
17619;DHT22;8928;51.678;6.074;2023-01-24T02:40:18;2.60;99.90
17619;DHT22;8928;51.678;6.074;2023-01-24T02:43:07;2.50;99.90
17619;DHT22;8928;51.678;6.074;2023-01-24T02:45:56;2.50;99.90
17619;DHT22;8928;51.678;6.074;2023-01-24T02:48:42;2.60;99.90
17619;DHT22;8928;51.678;6.074;2023-01-24T02:51:29;2.50;99.90
17619;DHT22;8928;51.678;6.074;2023-01-24T02:54:34;2.50;99.90
17619;DHT22;8928;51.678;6.074;2023-01-24T02:57:21;2.50;99.90
17619;DHT22;8928;51.678;6.074;2023-01-24T03:00:27;2.50;99.90
17619;DHT22;8928;51.678;6.074;2023-01-24T03:03:14;2.50;99.90
17619;DHT22;8928;51.678;6.074;2023-01-24T03:06:01;2.50;99.90
17619;DHT22;8928;51.678;6.074;2023-01-24T03:08:48;2.40;99.90
17619;DHT22;8928;51.678;6.074;2023-01-24T03:11:35;2.40;99.90
17619;DHT22;8928;51.678;6.074;2023-01-24T03:14:22;2.40;99.90
17619;DHT22;8928;51.678;6.074;2023-01-24T03:17:28;2.40;99.90
17619;DHT22;8928;51.678;6.074;2023-01-24T03:20:33;2.40;99.90
17619;DHT22;8928;51.678;6.074;2023-01-24T03:23:38;2.40;99.90
17619;DHT22;8928;51.678;6.074;2023-01-24T03:26:42;2.40;99.90
17619;DHT22;8928;51.678;6.074;2023-01-24T03:29:47;2.40;99.90
17619;DHT22;8928;51.678;6.074;2023-01-24T03:32:58;2.40;99.90
17619;DHT22;8928;51.678;6.074;2023-01-24T03:36:03;2.40;99.90
17619;DHT22;8928;51.678;6.074;2023-01-24T03:38:52;2.40;99.90
17619;DHT22;8928;51.678;6.074;2023-01-24T03:41:56;2.40;99.90
17619;DHT22;8928;51.678;6.074;2023-01-24T03:44:43;2.40;99.90
17619;DHT22;8928;51.678;6.074;2023-01-24T03:47:30;2.40;99.90
17619;DHT22;8928;51.678;6.074;2023-01-24T03:50:19;2.40;99.90
17619;DHT22;8928;51.678;6.074;2023-01-24T03:53:25;2.40;99.90
17619;DHT22;8928;51.678;6.074;2023-01-24T03:56:13;2.40;99.90
17619;DHT22;8928;51.678;6.074;2023-01-24T03:59:00;2.30;99.90
17619;DHT22;8928;51.678;6.074;2023-01-24T04:01:47;2.40;99.90
17619;DHT22;8928;51.678;6.074;2023-01-24T04:04:34;2.40;99.90
17619;DHT22;8928;51.678;6.074;2023-01-24T04:07:36;2.30;99.90
17619;DHT22;8928;51.678;6.074;2023-01-24T04:10:23;2.30;99.90
17619;DHT22;8928;51.678;6.074;2023-01-24T04:13:11;2.40;99.90
17619;DHT22;8928;51.678;6.074;2023-01-24T04:15:58;2.40;99.90
17619;DHT22;8928;51.678;6.074;2023-01-24T04:18:45;2.30;99.90
17619;DHT22;8928;51.678;6.074;2023-01-24T04:21:32;2.30;99.90
17619;DHT22;8928;51.678;6.074;2023-01-24T04:24:20;2.30;99.90
17619;DHT22;8928;51.678;6.074;2023-01-24T04:27:07;2.30;99.90
17619;DHT22;8928;51.678;6.074;2023-01-24T04:29:54;2.30;99.90
17619;DHT22;8928;51.678;6.074;2023-01-24T04:32:41;2.20;99.90
17619;DHT22;8928;51.678;6.074;2023-01-24T04:35:29;2.30;99.90
17619;DHT22;8928;51.678;6.074;2023-01-24T04:38:16;2.30;99.90
17619;DHT22;8928;51.678;6.074;2023-01-24T04:41:05;2.20;99.90
17619;DHT22;8928;51.678;6.074;2023-01-24T04:43:52;2.30;99.90
17619;DHT22;8928;51.678;6.074;2023-01-24T04:46:39;2.20;99.90
17619;DHT22;8928;51.678;6.074;2023-01-24T04:49:26;2.20;99.90
17619;DHT22;8928;51.678;6.074;2023-01-24T04:52:13;2.20;99.90
17619;DHT22;8928;51.678;6.074;2023-01-24T04:55:00;2.20;99.90
17619;DHT22;8928;51.678;6.074;2023-01-24T04:57:48;2.20;99.90
17619;DHT22;8928;51.678;6.074;2023-01-24T05:00:35;2.20;99.90
17619;DHT22;8928;51.678;6.074;2023-01-24T05:03:22;2.20;99.90
17619;DHT22;8928;51.678;6.074;2023-01-24T05:06:09;2.20;99.90
17619;DHT22;8928;51.678;6.074;2023-01-24T05:08:56;2.20;99.90
17619;DHT22;8928;51.678;6.074;2023-01-24T05:11:43;2.20;99.90
17619;DHT22;8928;51.678;6.074;2023-01-24T05:14:32;2.20;99.90
17619;DHT22;8928;51.678;6.074;2023-01-24T05:17:19;2.20;99.90
17619;DHT22;8928;51.678;6.074;2023-01-24T05:20:07;2.20;99.90
17619;DHT22;8928;51.678;6.074;2023-01-24T05:22:55;2.20;99.90
17619;DHT22;8928;51.678;6.074;2023-01-24T05:25:42;2.20;99.90
17619;DHT22;8928;51.678;6.074;2023-01-24T05:28:29;2.20;99.90
17619;DHT22;8928;51.678;6.074;2023-01-24T05:31:18;2.20;99.90
17619;DHT22;8928;51.678;6.074;2023-01-24T05:34:05;2.10;99.90
17619;DHT22;8928;51.678;6.074;2023-01-24T05:36:52;2.10;99.90
17619;DHT22;8928;51.678;6.074;2023-01-24T05:39:39;2.10;99.90
17619;DHT22;8928;51.678;6.074;2023-01-24T05:42:26;2.10;99.90
17619;DHT22;8928;51.678;6.074;2023-01-24T05:45:13;2.10;99.90
17619;DHT22;8928;51.678;6.074;2023-01-24T05:48:01;2.10;99.90
17619;DHT22;8928;51.678;6.074;2023-01-24T05:50:48;2.10;99.90
17619;DHT22;8928;51.678;6.074;2023-01-24T05:53:37;2.10;99.90
17619;DHT22;8928;51.678;6.074;2023-01-24T05:56:24;2.10;99.90
17619;DHT22;8928;51.678;6.074;2023-01-24T05:59:11;2.10;99.90
17619;DHT22;8928;51.678;6.074;2023-01-24T06:01:59;2.00;99.90
17619;DHT22;8928;51.678;6.074;2023-01-24T06:04:47;2.00;99.90
17619;DHT22;8928;51.678;6.074;2023-01-24T06:07:34;2.00;99.90
17619;DHT22;8928;51.678;6.074;2023-01-24T06:10:21;2.00;99.90
17619;DHT22;8928;51.678;6.074;2023-01-24T06:13:09;2.00;99.90
17619;DHT22;8928;51.678;6.074;2023-01-24T06:16:00;2.00;99.90
17619;DHT22;8928;51.678;6.074;2023-01-24T06:18:48;2.00;99.90
17619;DHT22;8928;51.678;6.074;2023-01-24T06:21:43;2.00;99.90
17619;DHT22;8928;51.678;6.074;2023-01-24T06:24:30;2.00;99.90
17619;DHT22;8928;51.678;6.074;2023-01-24T06:27:18;2.00;99.90
17619;DHT22;8928;51.678;6.074;2023-01-24T06:30:08;2.00;99.90
17619;DHT22;8928;51.678;6.074;2023-01-24T06:33:14;2.00;99.90
17619;DHT22;8928;51.678;6.074;2023-01-24T06:36:18;2.00;99.90
17619;DHT22;8928;51.678;6.074;2023-01-24T06:39:10;1.90;99.90
17619;DHT22;8928;51.678;6.074;2023-01-24T06:41:59;1.90;99.90
17619;DHT22;8928;51.678;6.074;2023-01-24T06:44:47;1.90;99.90
17619;DHT22;8928;51.678;6.074;2023-01-24T06:47:34;1.90;99.90
17619;DHT22;8928;51.678;6.074;2023-01-24T06:50:22;1.90;99.90
17619;DHT22;8928;51.678;6.074;2023-01-24T06:53:11;1.90;99.90
17619;DHT22;8928;51.678;6.074;2023-01-24T06:56:01;1.90;99.90
17619;DHT22;8928;51.678;6.074;2023-01-24T06:58:48;1.90;99.90
17619;DHT22;8928;51.678;6.074;2023-01-24T07:01:35;1.90;99.90
17619;DHT22;8928;51.678;6.074;2023-01-24T07:04:22;1.90;99.90
17619;DHT22;8928;51.678;6.074;2023-01-24T07:07:09;1.90;99.90
17619;DHT22;8928;51.678;6.074;2023-01-24T07:09:56;1.90;99.90
17619;DHT22;8928;51.678;6.074;2023-01-24T07:12:44;1.90;99.90
17619;DHT22;8928;51.678;6.074;2023-01-24T07:15:31;1.90;99.90
17619;DHT22;8928;51.678;6.074;2023-01-24T07:18:20;1.90;99.90
17619;DHT22;8928;51.678;6.074;2023-01-24T07:21:07;1.90;99.90
17619;DHT22;8928;51.678;6.074;2023-01-24T07:23:56;1.90;99.90
17619;DHT22;8928;51.678;6.074;2023-01-24T07:26:44;1.90;99.90
17619;DHT22;8928;51.678;6.074;2023-01-24T07:29:33;1.90;99.90
17619;DHT22;8928;51.678;6.074;2023-01-24T07:32:20;1.90;99.90
17619;DHT22;8928;51.678;6.074;2023-01-24T07:35:08;1.90;99.90
17619;DHT22;8928;51.678;6.074;2023-01-24T07:37:55;1.90;99.90
17619;DHT22;8928;51.678;6.074;2023-01-24T07:40:42;1.90;99.90
17619;DHT22;8928;51.678;6.074;2023-01-24T07:43:30;1.90;99.90
17619;DHT22;8928;51.678;6.074;2023-01-24T07:46:18;1.90;99.90
17619;DHT22;8928;51.678;6.074;2023-01-24T07:49:05;1.90;99.90
17619;DHT22;8928;51.678;6.074;2023-01-24T07:51:52;1.90;99.90
17619;DHT22;8928;51.678;6.074;2023-01-24T07:54:39;1.90;99.90
17619;DHT22;8928;51.678;6.074;2023-01-24T07:57:26;1.90;99.90
17619;DHT22;8928;51.678;6.074;2023-01-24T08:00:15;1.90;99.90
17619;DHT22;8928;51.678;6.074;2023-01-24T08:03:03;1.90;99.90
17619;DHT22;8928;51.678;6.074;2023-01-24T08:05:50;1.90;99.90
17619;DHT22;8928;51.678;6.074;2023-01-24T08:08:37;1.90;99.90
17619;DHT22;8928;51.678;6.074;2023-01-24T08:11:24;1.90;99.90
17619;DHT22;8928;51.678;6.074;2023-01-24T08:14:11;2.00;99.90
17619;DHT22;8928;51.678;6.074;2023-01-24T08:16:58;1.90;99.90
17619;DHT22;8928;51.678;6.074;2023-01-24T08:19:47;1.90;99.90
17619;DHT22;8928;51.678;6.074;2023-01-24T08:22:34;2.00;99.90
17619;DHT22;8928;51.678;6.074;2023-01-24T08:25:21;2.00;99.90
17619;DHT22;8928;51.678;6.074;2023-01-24T08:28:09;2.00;99.90
17619;DHT22;8928;51.678;6.074;2023-01-24T08:30:57;2.00;99.90
17619;DHT22;8928;51.678;6.074;2023-01-24T08:33:44;2.00;99.90
17619;DHT22;8928;51.678;6.074;2023-01-24T08:36:32;2.00;99.90
17619;DHT22;8928;51.678;6.074;2023-01-24T08:39:19;2.10;99.90
17619;DHT22;8928;51.678;6.074;2023-01-24T08:42:07;2.10;99.90
17619;DHT22;8928;51.678;6.074;2023-01-24T08:44:54;2.10;99.90
17619;DHT22;8928;51.678;6.074;2023-01-24T08:47:41;2.10;99.90
17619;DHT22;8928;51.678;6.074;2023-01-24T08:50:28;2.10;99.90
17619;DHT22;8928;51.678;6.074;2023-01-24T08:53:16;2.10;99.90
17619;DHT22;8928;51.678;6.074;2023-01-24T08:56:04;2.10;99.90
17619;DHT22;8928;51.678;6.074;2023-01-24T08:58:53;2.20;99.90
17619;DHT22;8928;51.678;6.074;2023-01-24T09:01:40;2.20;99.90
17619;DHT22;8928;51.678;6.074;2023-01-24T09:04:28;2.20;99.90
17619;DHT22;8928;51.678;6.074;2023-01-24T09:07:15;2.20;99.90
17619;DHT22;8928;51.678;6.074;2023-01-24T09:10:03;2.20;99.90
17619;DHT22;8928;51.678;6.074;2023-01-24T09:12:51;2.30;99.90
17619;DHT22;8928;51.678;6.074;2023-01-24T09:15:38;2.20;99.90
17619;DHT22;8928;51.678;6.074;2023-01-24T09:18:25;2.30;99.90
17619;DHT22;8928;51.678;6.074;2023-01-24T09:21:12;2.30;99.90
17619;DHT22;8928;51.678;6.074;2023-01-24T09:23:59;2.30;99.90
17619;DHT22;8928;51.678;6.074;2023-01-24T09:26:47;2.40;99.90
17619;DHT22;8928;51.678;6.074;2023-01-24T09:29:34;2.40;99.90
17619;DHT22;8928;51.678;6.074;2023-01-24T09:32:21;2.40;99.90
17619;DHT22;8928;51.678;6.074;2023-01-24T09:35:09;2.40;99.90
17619;DHT22;8928;51.678;6.074;2023-01-24T09:37:56;2.40;99.90
17619;DHT22;8928;51.678;6.074;2023-01-24T09:40:45;2.40;99.90
17619;DHT22;8928;51.678;6.074;2023-01-24T09:43:44;2.40;99.90
17619;DHT22;8928;51.678;6.074;2023-01-24T09:46:35;2.40;99.90
17619;DHT22;8928;51.678;6.074;2023-01-24T09:49:32;2.50;99.90
17619;DHT22;8928;51.678;6.074;2023-01-24T09:52:29;2.40;99.90
17619;DHT22;8928;51.678;6.074;2023-01-24T09:55:21;2.50;99.90
17619;DHT22;8928;51.678;6.074;2023-01-24T09:58:22;2.50;99.90
17619;DHT22;8928;51.678;6.074;2023-01-24T10:01:17;2.60;99.90
17619;DHT22;8928;51.678;6.074;2023-01-24T10:04:04;2.60;99.90
17619;DHT22;8928;51.678;6.074;2023-01-24T10:07:13;2.60;99.90
17619;DHT22;8928;51.678;6.074;2023-01-24T10:10:10;2.60;99.90
17619;DHT22;8928;51.678;6.074;2023-01-24T10:13:02;2.60;99.90
17619;DHT22;8928;51.678;6.074;2023-01-24T10:16:00;2.60;99.90
17619;DHT22;8928;51.678;6.074;2023-01-24T10:19:02;2.60;99.90
17619;DHT22;8928;51.678;6.074;2023-01-24T10:22:12;2.70;99.90
17619;DHT22;8928;51.678;6.074;2023-01-24T10:25:03;2.70;99.90
17619;DHT22;8928;51.678;6.074;2023-01-24T10:27:53;2.70;99.90
17619;DHT22;8928;51.678;6.074;2023-01-24T10:30:45;2.70;99.90
17619;DHT22;8928;51.678;6.074;2023-01-24T10:33:39;2.70;99.90
17619;DHT22;8928;51.678;6.074;2023-01-24T10:36:34;2.80;99.90
17619;DHT22;8928;51.678;6.074;2023-01-24T10:39:24;2.70;99.90
17619;DHT22;8928;51.678;6.074;2023-01-24T10:42:19;2.80;99.90
17619;DHT22;8928;51.678;6.074;2023-01-24T10:45:29;2.80;99.90
17619;DHT22;8928;51.678;6.074;2023-01-24T10:48:27;2.80;99.90
17619;DHT22;8928;51.678;6.074;2023-01-24T10:51:22;2.80;99.90
17619;DHT22;8928;51.678;6.074;2023-01-24T10:54:19;2.90;99.90
17619;DHT22;8928;51.678;6.074;2023-01-24T10:57:20;2.90;99.90
17619;DHT22;8928;51.678;6.074;2023-01-24T11:00:32;2.90;99.90
17619;DHT22;8928;51.678;6.074;2023-01-24T11:03:22;3.00;99.90
17619;DHT22;8928;51.678;6.074;2023-01-24T11:06:23;3.00;99.90
17619;DHT22;8928;51.678;6.074;2023-01-24T11:09:14;3.00;99.90
17619;DHT22;8928;51.678;6.074;2023-01-24T11:12:01;3.10;99.90
17619;DHT22;8928;51.678;6.074;2023-01-24T11:14:49;3.10;99.90
17619;DHT22;8928;51.678;6.074;2023-01-24T11:17:36;3.10;99.90
17619;DHT22;8928;51.678;6.074;2023-01-24T11:20:29;3.10;99.90
17619;DHT22;8928;51.678;6.074;2023-01-24T11:23:18;3.00;99.90
17619;DHT22;8928;51.678;6.074;2023-01-24T11:26:21;3.00;99.90
17619;DHT22;8928;51.678;6.074;2023-01-24T11:29:16;3.00;99.90
17619;DHT22;8928;51.678;6.074;2023-01-24T11:32:20;3.10;99.90
17619;DHT22;8928;51.678;6.074;2023-01-24T11:35:16;3.10;99.90
17619;DHT22;8928;51.678;6.074;2023-01-24T11:38:20;3.10;99.90
17619;DHT22;8928;51.678;6.074;2023-01-24T11:41:12;3.10;99.90
17619;DHT22;8928;51.678;6.074;2023-01-24T11:44:36;3.10;99.90
17619;DHT22;8928;51.678;6.074;2023-01-24T11:47:29;3.10;99.90
17619;DHT22;8928;51.678;6.074;2023-01-24T11:50:30;3.10;99.90
17619;DHT22;8928;51.678;6.074;2023-01-24T11:53:32;3.10;99.90
17619;DHT22;8928;51.678;6.074;2023-01-24T11:56:29;3.20;99.90
17619;DHT22;8928;51.678;6.074;2023-01-24T12:02:35;3.30;99.90
17619;DHT22;8928;51.678;6.074;2023-01-24T12:05:31;3.20;99.90
17619;DHT22;8928;51.678;6.074;2023-01-24T12:08:35;3.20;99.90
17619;DHT22;8928;51.678;6.074;2023-01-24T12:11:29;3.20;99.90
17619;DHT22;8928;51.678;6.074;2023-01-24T12:14:37;3.30;99.90
17619;DHT22;8928;51.678;6.074;2023-01-24T12:17:37;3.30;99.90
17619;DHT22;8928;51.678;6.074;2023-01-24T12:20:56;3.30;99.90
17619;DHT22;8928;51.678;6.074;2023-01-24T12:23:49;3.30;99.90
17619;DHT22;8928;51.678;6.074;2023-01-24T12:26:42;3.40;99.90
17619;DHT22;8928;51.678;6.074;2023-01-24T12:29:33;3.40;99.90
17619;DHT22;8928;51.678;6.074;2023-01-24T12:32:25;3.50;99.90
17619;DHT22;8928;51.678;6.074;2023-01-24T12:35:19;3.40;99.90
17619;DHT22;8928;51.678;6.074;2023-01-24T12:38:18;3.40;99.90
17619;DHT22;8928;51.678;6.074;2023-01-24T12:41:13;3.40;99.90
17619;DHT22;8928;51.678;6.074;2023-01-24T12:44:15;3.40;99.90
17619;DHT22;8928;51.678;6.074;2023-01-24T12:47:15;3.30;99.90
17619;DHT22;8928;51.678;6.074;2023-01-24T12:50:14;3.30;99.90
17619;DHT22;8928;51.678;6.074;2023-01-24T12:53:11;3.30;99.90
17619;DHT22;8928;51.678;6.074;2023-01-24T12:56:03;3.30;99.90
17619;DHT22;8928;51.678;6.074;2023-01-24T12:58:53;3.40;99.90
17619;DHT22;8928;51.678;6.074;2023-01-24T13:02:16;3.40;99.90
17619;DHT22;8928;51.678;6.074;2023-01-24T13:05:17;3.40;99.90
17619;DHT22;8928;51.678;6.074;2023-01-24T13:08:19;3.40;99.90
17619;DHT22;8928;51.678;6.074;2023-01-24T13:11:17;3.40;99.90
17619;DHT22;8928;51.678;6.074;2023-01-24T13:14:11;3.40;99.90
17619;DHT22;8928;51.678;6.074;2023-01-24T13:17:22;3.30;99.90
17619;DHT22;8928;51.678;6.074;2023-01-24T13:20:19;3.20;99.90
17619;DHT22;8928;51.678;6.074;2023-01-24T13:26:53;3.30;99.90
17619;DHT22;8928;51.678;6.074;2023-01-24T13:29:53;3.30;99.90
17619;DHT22;8928;51.678;6.074;2023-01-24T13:32:46;3.30;99.90
17619;DHT22;8928;51.678;6.074;2023-01-24T13:35:33;3.30;99.90
17619;DHT22;8928;51.678;6.074;2023-01-24T13:38:23;3.20;99.90
17619;DHT22;8928;51.678;6.074;2023-01-24T13:41:14;3.30;99.90
17619;DHT22;8928;51.678;6.074;2023-01-24T13:44:03;3.20;99.90
17619;DHT22;8928;51.678;6.074;2023-01-24T13:46:58;3.20;99.90
17619;DHT22;8928;51.678;6.074;2023-01-24T13:50:12;3.20;99.90
17619;DHT22;8928;51.678;6.074;2023-01-24T13:53:00;3.20;99.90
17619;DHT22;8928;51.678;6.074;2023-01-24T13:56:00;3.10;99.90
17619;DHT22;8928;51.678;6.074;2023-01-24T13:58:51;3.00;99.90
17619;DHT22;8928;51.678;6.074;2023-01-24T14:01:44;3.00;99.90
17619;DHT22;8928;51.678;6.074;2023-01-24T14:04:39;3.00;99.90
17619;DHT22;8928;51.678;6.074;2023-01-24T14:07:29;3.00;99.90
17619;DHT22;8928;51.678;6.074;2023-01-24T14:10:16;3.00;99.90
17619;DHT22;8928;51.678;6.074;2023-01-24T14:13:04;3.00;99.90
17619;DHT22;8928;51.678;6.074;2023-01-24T14:15:51;2.90;99.90
17619;DHT22;8928;51.678;6.074;2023-01-24T14:18:42;2.90;99.90
17619;DHT22;8928;51.678;6.074;2023-01-24T14:21:44;2.90;99.90
17619;DHT22;8928;51.678;6.074;2023-01-24T14:24:35;2.90;99.90
17619;DHT22;8928;51.678;6.074;2023-01-24T14:27:26;2.90;99.90
17619;DHT22;8928;51.678;6.074;2023-01-24T14:30:30;2.90;99.90
17619;DHT22;8928;51.678;6.074;2023-01-24T14:33:31;2.80;99.90
17619;DHT22;8928;51.678;6.074;2023-01-24T14:36:24;2.80;99.90
17619;DHT22;8928;51.678;6.074;2023-01-24T14:39:19;2.70;99.90
17619;DHT22;8928;51.678;6.074;2023-01-24T14:42:13;2.70;99.90
17619;DHT22;8928;51.678;6.074;2023-01-24T14:45:00;2.70;99.90
17619;DHT22;8928;51.678;6.074;2023-01-24T14:47:48;2.70;99.90
17619;DHT22;8928;51.678;6.074;2023-01-24T14:50:37;2.70;99.90
17619;DHT22;8928;51.678;6.074;2023-01-24T14:53:27;2.70;99.90
17619;DHT22;8928;51.678;6.074;2023-01-24T14:56:14;2.70;99.90
17619;DHT22;8928;51.678;6.074;2023-01-24T14:59:11;2.60;99.90
17619;DHT22;8928;51.678;6.074;2023-01-24T15:02:00;2.60;99.90
17619;DHT22;8928;51.678;6.074;2023-01-24T15:04:46;2.50;99.90
17619;DHT22;8928;51.678;6.074;2023-01-24T15:07:34;2.50;99.90
17619;DHT22;8928;51.678;6.074;2023-01-24T15:10:22;2.50;99.90
17619;DHT22;8928;51.678;6.074;2023-01-24T15:13:17;2.50;99.90
17619;DHT22;8928;51.678;6.074;2023-01-24T15:16:06;2.50;99.90
17619;DHT22;8928;51.678;6.074;2023-01-24T15:19:01;2.40;99.90
17619;DHT22;8928;51.678;6.074;2023-01-24T15:21:50;2.40;99.90
17619;DHT22;8928;51.678;6.074;2023-01-24T15:24:39;2.40;99.90
17619;DHT22;8928;51.678;6.074;2023-01-24T15:27:42;2.40;99.90
17619;DHT22;8928;51.678;6.074;2023-01-24T15:30:30;2.40;99.90
17619;DHT22;8928;51.678;6.074;2023-01-24T15:33:18;2.40;99.90
17619;DHT22;8928;51.678;6.074;2023-01-24T15:36:20;2.30;99.90
17619;DHT22;8928;51.678;6.074;2023-01-24T15:39:13;2.30;99.90
17619;DHT22;8928;51.678;6.074;2023-01-24T15:42:05;2.30;99.90
17619;DHT22;8928;51.678;6.074;2023-01-24T15:45:16;2.20;99.90
17619;DHT22;8928;51.678;6.074;2023-01-24T15:48:12;2.20;99.90
17619;DHT22;8928;51.678;6.074;2023-01-24T15:50:59;2.20;99.90
17619;DHT22;8928;51.678;6.074;2023-01-24T15:53:52;2.10;99.90
17619;DHT22;8928;51.678;6.074;2023-01-24T15:56:41;2.10;99.90
17619;DHT22;8928;51.678;6.074;2023-01-24T15:59:29;2.10;99.90
17619;DHT22;8928;51.678;6.074;2023-01-24T16:02:17;2.00;99.90
17619;DHT22;8928;51.678;6.074;2023-01-24T16:05:11;2.00;99.90
17619;DHT22;8928;51.678;6.074;2023-01-24T16:08:00;2.00;99.90
17619;DHT22;8928;51.678;6.074;2023-01-24T16:10:47;2.00;99.90
17619;DHT22;8928;51.678;6.074;2023-01-24T16:13:37;2.00;99.90
17619;DHT22;8928;51.678;6.074;2023-01-24T16:16:24;2.00;99.90
17619;DHT22;8928;51.678;6.074;2023-01-24T16:19:15;1.90;99.90
17619;DHT22;8928;51.678;6.074;2023-01-24T16:22:02;1.90;99.90
17619;DHT22;8928;51.678;6.074;2023-01-24T16:24:51;1.90;99.90
17619;DHT22;8928;51.678;6.074;2023-01-24T16:27:38;1.90;99.90
17619;DHT22;8928;51.678;6.074;2023-01-24T16:30:26;1.90;99.90
17619;DHT22;8928;51.678;6.074;2023-01-24T16:33:13;1.90;99.90
17619;DHT22;8928;51.678;6.074;2023-01-24T16:36:00;1.90;99.90
17619;DHT22;8928;51.678;6.074;2023-01-24T16:38:47;1.90;99.90
17619;DHT22;8928;51.678;6.074;2023-01-24T16:41:36;1.90;99.90
17619;DHT22;8928;51.678;6.074;2023-01-24T16:44:23;1.90;99.90
17619;DHT22;8928;51.678;6.074;2023-01-24T16:47:10;1.80;99.90
17619;DHT22;8928;51.678;6.074;2023-01-24T16:49:57;1.80;99.90
17619;DHT22;8928;51.678;6.074;2023-01-24T16:52:44;1.80;99.90
17619;DHT22;8928;51.678;6.074;2023-01-24T16:55:32;1.80;99.90
17619;DHT22;8928;51.678;6.074;2023-01-24T16:58:22;1.80;99.90
17619;DHT22;8928;51.678;6.074;2023-01-24T17:01:09;1.80;99.90
17619;DHT22;8928;51.678;6.074;2023-01-24T17:03:56;1.80;99.90
17619;DHT22;8928;51.678;6.074;2023-01-24T17:06:43;1.80;99.90
17619;DHT22;8928;51.678;6.074;2023-01-24T17:09:31;1.80;99.90
17619;DHT22;8928;51.678;6.074;2023-01-24T17:12:18;1.80;99.90
17619;DHT22;8928;51.678;6.074;2023-01-24T17:15:08;1.80;99.90
17619;DHT22;8928;51.678;6.074;2023-01-24T17:17:55;1.80;99.90
17619;DHT22;8928;51.678;6.074;2023-01-24T17:20:42;1.80;99.90
17619;DHT22;8928;51.678;6.074;2023-01-24T17:23:30;1.80;99.90
17619;DHT22;8928;51.678;6.074;2023-01-24T17:26:17;1.70;99.90
17619;DHT22;8928;51.678;6.074;2023-01-24T17:29:04;1.70;99.90
17619;DHT22;8928;51.678;6.074;2023-01-24T17:31:53;1.70;99.90
17619;DHT22;8928;51.678;6.074;2023-01-24T17:34:40;1.70;99.90
17619;DHT22;8928;51.678;6.074;2023-01-24T17:37:27;1.70;99.90
17619;DHT22;8928;51.678;6.074;2023-01-24T17:40:14;1.70;99.90
17619;DHT22;8928;51.678;6.074;2023-01-24T17:43:01;1.70;99.90
17619;DHT22;8928;51.678;6.074;2023-01-24T17:45:52;1.80;99.90
17619;DHT22;8928;51.678;6.074;2023-01-24T17:48:40;1.70;99.90
17619;DHT22;8928;51.678;6.074;2023-01-24T17:51:28;1.60;99.90
17619;DHT22;8928;51.678;6.074;2023-01-24T17:54:16;1.60;99.90
17619;DHT22;8928;51.678;6.074;2023-01-24T17:57:03;1.60;99.90
17619;DHT22;8928;51.678;6.074;2023-01-24T17:59:50;1.60;99.90
17619;DHT22;8928;51.678;6.074;2023-01-24T18:02:37;1.60;99.90
17619;DHT22;8928;51.678;6.074;2023-01-24T18:05:25;1.60;99.90
17619;DHT22;8928;51.678;6.074;2023-01-24T18:08:12;1.60;99.90
17619;DHT22;8928;51.678;6.074;2023-01-24T18:11:05;1.60;99.90
17619;DHT22;8928;51.678;6.074;2023-01-24T18:13:54;1.60;99.90
17619;DHT22;8928;51.678;6.074;2023-01-24T18:16:41;1.60;99.90
17619;DHT22;8928;51.678;6.074;2023-01-24T18:19:28;1.50;99.90
17619;DHT22;8928;51.678;6.074;2023-01-24T18:22:17;1.60;99.90
17619;DHT22;8928;51.678;6.074;2023-01-24T18:25:04;1.60;99.90
17619;DHT22;8928;51.678;6.074;2023-01-24T18:27:51;1.50;99.90
17619;DHT22;8928;51.678;6.074;2023-01-24T18:30:38;1.50;99.90
17619;DHT22;8928;51.678;6.074;2023-01-24T18:33:25;1.60;99.90
17619;DHT22;8928;51.678;6.074;2023-01-24T18:36:15;1.50;99.90
17619;DHT22;8928;51.678;6.074;2023-01-24T18:39:04;1.60;99.90
17619;DHT22;8928;51.678;6.074;2023-01-24T18:41:51;1.60;99.90
17619;DHT22;8928;51.678;6.074;2023-01-24T18:44:38;1.60;99.90